Weather at Pratt's Eastern Divide Airport

Public forecast

Using degrees Fahrenheit for public forecast. Weather courtesy of forecast.io.

Closest aviation weather report (METAR) to Pratt's Eastern Divide Airport

Closest report is Chautauqua County-Jamestown Airport, 19.2 nm (35.5 km) E.

2024/07/25 08:56 (retrieved 16 minutes ago)

KJHW 250856Z AUTO 33005KT 10SM FEW016 16/16 A3016 RMK AO2 SLP210 T01610161 53001

Closest aviation forecast (TAF) to Pratt's Eastern Divide Airport

Closest forecast is Chautauqua County-Jamestown Airport, 19.2 nm (35.5 km) E.

2024/07/25 06:33 (retrieved 3 hours ago)

TAF KJHW 250530Z 2506/2606 VRB03KT P6SM SCT060 FM250700 VRB03KT 6SM BR SCT007 TEMPO 2507/2510 BKN007 FM251000 VRB03KT 4SM BR BKN007 FM251200 32004KT P6SM SCT030 FM251800 32007KT P6SM FEW100 FM260200 31004KT P6SM FEW250 FM260400 00000KT P6SM FEW250